• Join FlightAware (Why Join?)
  • Login
  • US Flag 
11:59PM EST


 

Airport Tracker/Info


-or-


 

Live Flight TrackerFlight Track Log ✈ N39PH ✈ 03-May-2013 ✈ KMTJ - KAPA

Flight Track Log - Related Links

Times and Time Zones

All times are in EDT time to prevent confusion due to time zone crossing. See the N39PH flight status page for this flight to view local times or setup timezone preferences in your user account.

Time Position Orientation Groundspeed Altitude Reporting Facility
EDT Latitude Longitude Course Direction KTS MPH feet Rate Location/Type
03:33PM 38.5522 -107.9158 73° East 165 190 7,400  Level Denver Center
03:34PM 38.5219 -107.9517 223° Southwest 217 250 9,200 1,680 Climbing Denver Center
03:35PM 38.5053 -107.8953 111° Southeast 181 208 10,900 1,740 Climbing Denver Center
03:36PM 38.6402 -107.4228 72° East  Level FlightAware Approximate
03:36PM 38.5236 -107.8333 69° East 192 221 12,900  Level Denver Center
03:37PM 38.6699 -107.3531 73° East  Level FlightAware Approximate
03:38PM 38.6886 -107.2739 73° East  Level FlightAware Approximate
03:38PM 38.5408 -107.7597 73° East 182 209 14,900  Level Denver Center
03:39PM 38.7072 -107.1948 73° East  Level FlightAware Approximate
03:39PM 38.5611 -107.6989 67° East 183 211 16,300  Level Denver Center
03:40PM 38.5789 -107.6389 69° East 190 219 17,600 1,200 Climbing Denver Center
03:41PM 38.6019 -107.5650 68° East 198 228 18,900 1,080 Climbing Denver Center
03:42PM 38.6222 -107.4986 69° East 204 235 19,900 1,080 Climbing Denver Center
03:43PM 38.6461 -107.4206 69° East 208 239 21,200 480 Climbing Denver Center
03:44PM 38.6700 -107.3483 67° East 223 257 21,000 -120 Descending Denver Center
03:45PM 38.6958 -107.2467 72° East 259 298 21,000  Level Denver Center
03:46PM 38.7267 -107.1600 65° Northeast 266 306 21,000  Level Denver Center
03:47PM 38.7519 -107.0678 71° East 271 312 21,000  Level Denver Center
03:48PM 38.7792 -106.9783 69° East 271 312 21,000  Level Denver Center
03:49PM 38.8067 -106.8886 69° East 270 311 21,000  Level Denver Center
03:50PM 38.8425 -106.7628 70° East 270 311 21,000  Level Denver Center
03:51PM 38.8686 -106.6719 70° East 271 312 21,000  Level Denver Center
03:52PM 38.8903 -106.6003 69° East 273 314 21,000  Level Denver Center
03:53PM 38.9233 -106.4822 70° East 276 318 21,000  Level Denver Center
03:54PM 38.9494 -106.3967 69° East 271 312 21,000  Level Denver Center
03:55PM 38.9789 -106.2942 70° East 274 315 21,000  Level Denver Center
03:56PM 39.0028 -106.2069 71° East 272 313 21,000 -420 Level Denver Center
03:57PM 39.0314 -106.1125 69° East 278 320 20,200 -1,020 Descending Denver Center
03:58PM 39.0711 -105.9989 66° East 293 337 19,000 -600 Descending Denver Center
03:59PM 39.1139 -105.9200 55° Northeast 269 310 19,000  Level Denver Center
04:00PM 39.1456 -105.8356 64° Northeast 261 300 19,000  Level Denver Center
04:02PM 39.1825 -105.7544 60° Northeast 261 300 19,000  Level Denver Center
04:03PM 39.2178 -105.6717 61° Northeast 261 300 19,000  Level Denver Center
04:04PM 39.2533 -105.5872 61° Northeast 264 304 19,000 -480 Level Denver Center
04:05PM 39.3014 -105.4769 61° Northeast 274 315 18,000 -1,200 Descending Denver Center
04:06PM 39.3411 -105.3894 60° Northeast 279 321 16,500 -1,380 Descending Denver Center
04:07PM 39.3633 -105.2908 74° East 270 311 15,200 -1,380 Descending Denver Center
04:08PM 39.3706 -105.1958 84° East 266 306 13,700 -1,500 Descending Denver Center
04:09PM 39.3819 -105.0947 82° East 264 304 12,200 -1,440 Descending Denver Center
04:10PM 39.3931 -105.0067 81° East 252 290 10,800 -1,140 Descending Denver Center
04:11PM 39.4056 -104.9311 78° East 220 253 9,900 -900 Descending Denver Center
04:12PM 39.4450 -104.8817 44° Northeast 189 217 9,000 -1,020 Descending Denver Center
04:13PM 39.4886 -104.8531 27° Northeast 180 207 7,800 -1,260 Descending Denver Center
04:14PM 39.5319 -104.8469 North 145 167 6,500 -1,020 Descending Denver Center
04:15PM 39.5650 -104.8497 356° North 125 144 5,800 -720 Descending Denver Center